createdAt,value
2023-04-19T00:01:36.682Z,99893.88
2023-04-19T00:04:04.669Z,99886.09
2023-04-19T00:06:38.230Z,99882.63
2023-04-19T00:09:06.413Z,99883.44
2023-04-19T00:11:33.762Z,99883.47
2023-04-19T00:14:04.142Z,99878.75
2023-04-19T00:16:34.316Z,99881.03
2023-04-19T00:19:02.499Z,99875.31
2023-04-19T00:21:30.215Z,99870.81
2023-04-19T00:24:02.801Z,99877.13
2023-04-19T00:26:30.462Z,99868.84
2023-04-19T00:28:58.756Z,99864.84
2023-04-19T00:31:32.511Z,99860.34
2023-04-19T00:34:03.528Z,99854.09
2023-04-19T00:36:39.176Z,99852.06
2023-04-19T00:39:19.103Z,99851.81
2023-04-19T00:41:49.210Z,99848.06
2023-04-19T00:44:24.217Z,99852.59
2023-04-19T00:46:59.823Z,99843.56
2023-04-19T00:49:28.152Z,99838.28
2023-04-19T00:52:00.623Z,99836.50
2023-04-19T00:54:27.898Z,99834.00
2023-04-19T00:56:58.499Z,99825.19
2023-04-19T00:59:26.370Z,99823.69
2023-04-19T01:01:58.997Z,99824.16
2023-04-19T01:04:38.786Z,99824.41
2023-04-19T01:07:09.350Z,99817.84
2023-04-19T01:09:43.471Z,99822.38
2023-04-19T01:12:17.304Z,99822.88
2023-04-19T01:14:47.281Z,99817.84
2023-04-19T01:17:20.591Z,99817.13
2023-04-19T01:19:50.023Z,99813.59
2023-04-19T01:22:26.880Z,99811.81
2023-04-19T01:24:56.216Z,99816.84
2023-04-19T01:27:26.492Z,99808.75
2023-04-19T01:29:54.761Z,99805.19
2023-04-19T01:32:38.723Z,99808.69
2023-04-19T01:35:13.806Z,99800.84
2023-04-19T01:37:45.628Z,99797.09
2023-04-19T01:40:29.493Z,99801.59
2023-04-19T01:43:00.564Z,99807.63
2023-04-19T01:45:28.469Z,99805.31
2023-04-19T01:48:04.189Z,99799.00
2023-04-19T01:50:32.964Z,99793.94
2023-04-19T01:53:02.717Z,99789.94
2023-04-19T01:55:35.073Z,99791.16
2023-04-19T01:58:06.704Z,99789.66
2023-04-19T02:00:34.532Z,99788.13
2023-04-19T02:03:09.361Z,99787.34
2023-04-19T02:05:40.832Z,99803.16
2023-04-19T02:08:11.967Z,99789.78
2023-04-19T02:10:40.316Z,99794.81
2023-04-19T02:13:13.894Z,99784.75
2023-04-19T02:15:43.905Z,99790.03
2023-04-19T02:18:13.904Z,99786.75
2023-04-19T02:20:42.493Z,99785.25
2023-04-19T02:23:18.346Z,99783.00
2023-04-19T02:25:45.494Z,99778.47
2023-04-19T02:28:22.423Z,99775.75
2023-04-19T02:30:58.069Z,99776.03
2023-04-19T02:33:29.243Z,99775.53
2023-04-19T02:36:02.636Z,99782.06
2023-04-19T02:38:36.177Z,99775.44
2023-04-19T02:41:06.797Z,99775.19
2023-04-19T02:43:41.326Z,99772.44
2023-04-19T02:46:12.271Z,99764.13
2023-04-19T02:48:43.205Z,99760.91
2023-04-19T02:51:17.735Z,99763.72
2023-04-19T02:53:55.003Z,99760.19
2023-04-19T02:56:23.342Z,99764.75
2023-04-19T02:58:53.105Z,99756.50
2023-04-19T03:01:25.949Z,99753.72
2023-04-19T03:04:02.557Z,99753.25
2023-04-19T03:06:30.047Z,99753.25
2023-04-19T03:08:57.436Z,99748.22
2023-04-19T03:11:27.743Z,99758.78
2023-04-19T03:14:03.583Z,99744.72
2023-04-19T03:16:32.564Z,99747.19
2023-04-19T03:19:04.930Z,99736.66
2023-04-19T03:21:39.745Z,99735.69
2023-04-19T03:24:07.410Z,99734.44
2023-04-19T03:26:39.503Z,99733.94
2023-04-19T03:29:07.763Z,99726.22
2023-04-19T03:31:48.294Z,99725.25
2023-04-19T03:34:16.387Z,99723.72
2023-04-19T03:36:50.632Z,99725.47
2023-04-19T03:39:22.802Z,99721.47
2023-04-19T03:41:57.406Z,99721.47
2023-04-19T03:44:56.066Z,99716.47
2023-04-19T03:47:28.153Z,99719.97
2023-04-19T03:50:05.763Z,99724.28
2023-04-19T03:52:37.081Z,99721.53
2023-04-19T03:55:07.657Z,99727.53
2023-04-19T03:57:44.386Z,99723.78
2023-04-19T04:00:26.313Z,99722.50
2023-04-19T04:03:01.636Z,99722.75
2023-04-19T04:05:32.133Z,99710.94
2023-04-19T04:08:02.821Z,99712.44
2023-04-19T04:10:31.980Z,99724.25
2023-04-19T04:13:00.440Z,99718.50
2023-04-19T04:15:39.764Z,99713.25
2023-04-19T04:18:11.467Z,99720.00
2023-04-19T04:20:39.482Z,99721.03
2023-04-19T04:23:10.884Z,99719.31
2023-04-19T04:25:59.736Z,99712.50
2023-04-19T04:28:33.655Z,99716.03
2023-04-19T04:31:07.834Z,99709.50
2023-04-19T04:33:38.460Z,99710.25
2023-04-19T04:36:12.275Z,99717.03
2023-04-19T04:38:50.687Z,99717.28
2023-04-19T04:41:19.662Z,99711.06
2023-04-19T04:44:01.330Z,99708.53
2023-04-19T04:46:41.395Z,99700.50
2023-04-19T04:49:14.125Z,99696.47
2023-04-19T04:51:45.211Z,99698.72
2023-04-19T04:54:12.899Z,99701.25
2023-04-19T04:56:42.924Z,99694.72
2023-04-19T04:59:12.043Z,99687.66
2023-04-19T05:01:47.338Z,99689.19
2023-04-19T05:04:16.533Z,99689.63
2023-04-19T05:06:45.435Z,99685.88
2023-04-19T05:09:18.463Z,99681.06
2023-04-19T05:12:00.173Z,99679.31
2023-04-19T05:14:28.132Z,99684.06
2023-04-19T05:17:08.442Z,99676.50
2023-04-19T05:19:38.794Z,99677.47
2023-04-19T05:22:26.508Z,99674.72
2023-04-19T05:24:58.819Z,99678.72
2023-04-19T05:27:28.433Z,99667.13
2023-04-19T05:29:57.731Z,99671.38
2023-04-19T05:32:27.691Z,99664.38
2023-04-19T05:35:02.845Z,99665.38
2023-04-19T05:37:40.173Z,99677.19
2023-04-19T05:40:10.772Z,99679.19
2023-04-19T05:42:39.613Z,99670.47
2023-04-19T05:45:08.639Z,99666.91
2023-04-19T05:47:37.860Z,99662.53
2023-04-19T05:50:25.570Z,99667.75
2023-04-19T05:53:24.447Z,99667.69
2023-04-19T05:55:55.230Z,99668.38
2023-04-19T05:58:23.465Z,99672.38
2023-04-19T06:00:54.446Z,99669.63
2023-04-19T06:03:27.823Z,99668.06
2023-04-19T06:06:04.055Z,99670.25
2023-04-19T06:08:33.333Z,99668.47
2023-04-19T06:11:05.157Z,99670.53
2023-04-19T06:13:48.238Z,99673.06
2023-04-19T06:16:19.500Z,99672.09
2023-04-19T06:18:49.256Z,99671.38
2023-04-19T06:21:18.602Z,99666.84
2023-04-19T06:23:49.319Z,99668.09
2023-04-19T06:26:19.309Z,99672.91
2023-04-19T06:28:46.787Z,99670.63
2023-04-19T06:31:14.086Z,99670.41
2023-04-19T06:33:41.855Z,99662.13
2023-04-19T06:36:13.518Z,99668.91
2023-04-19T06:38:41.991Z,99659.41
2023-04-19T06:41:10.277Z,99666.94
2023-04-19T06:43:41.125Z,99665.22
2023-04-19T06:46:16.583Z,99663.50
2023-04-19T06:48:45.147Z,99654.47
2023-04-19T06:51:12.812Z,99668.81
2023-04-19T06:53:40.734Z,99662.03
2023-04-19T06:56:08.196Z,99669.34
2023-04-19T06:58:40.661Z,99666.34
2023-04-19T07:01:07.795Z,99655.03
2023-04-19T07:03:35.526Z,99657.53
2023-04-19T07:06:04.032Z,99662.28
2023-04-19T07:08:48.850Z,99660.81
2023-04-19T07:11:20.323Z,99662.56
2023-04-19T07:13:48.581Z,99660.53
2023-04-19T07:16:20.949Z,99661.47
2023-04-19T07:18:50.667Z,99661.41
2023-04-19T07:21:20.387Z,99658.59
2023-04-19T07:23:48.155Z,99653.75
2023-04-19T07:26:16.135Z,99650.97
2023-04-19T07:28:45.976Z,99656.31
2023-04-19T07:31:17.569Z,99646.50
2023-04-19T07:33:46.474Z,99661.78
2023-04-19T07:36:14.437Z,99652.25
2023-04-19T07:38:42.948Z,99652.84
2023-04-19T07:41:10.163Z,99655.66
2023-04-19T07:43:40.645Z,99657.16
2023-04-19T07:46:13.235Z,99652.63
2023-04-19T07:48:43.672Z,99653.69
2023-04-19T07:51:12.314Z,99657.19
2023-04-19T07:53:42.191Z,99653.91
2023-04-19T07:56:16.975Z,99650.69
2023-04-19T07:58:46.705Z,99644.13
2023-04-19T08:01:21.900Z,99649.06
2023-04-19T08:03:54.172Z,99647.50
2023-04-19T08:06:29.186Z,99643.34
2023-04-19T08:08:56.565Z,99645.97
2023-04-19T08:11:25.461Z,99646.09
2023-04-19T08:14:04.478Z,99649.03
2023-04-19T08:17:19.608Z,99643.44
2023-04-19T08:19:31.829Z,99640.88
2023-04-19T08:21:59.171Z,99633.56
2023-04-19T08:24:26.957Z,99643.88
2023-04-19T08:26:54.756Z,99640.81
2023-04-19T08:29:24.570Z,99635.13
2023-04-19T08:31:51.937Z,99648.00
2023-04-19T08:34:20.695Z,99642.47
2023-04-19T08:36:59.974Z,99638.22
2023-04-19T08:39:33.544Z,99637.28
2023-04-19T08:42:10.949Z,99639.19
2023-04-19T08:45:02.181Z,99639.47
2023-04-19T08:47:34.835Z,99637.06
2023-04-19T08:50:20.632Z,99643.41
2023-04-19T08:53:00.848Z,99649.97
2023-04-19T08:55:51.023Z,99637.63
2023-04-19T08:58:37.007Z,99643.16
2023-04-19T09:01:22.954Z,99643.69
2023-04-19T09:04:10.511Z,99644.72
2023-04-19T09:06:49.623Z,99633.19
2023-04-19T09:09:34.031Z,99644.78
2023-04-19T09:12:15.509Z,99642.97
2023-04-19T09:17:19.682Z,99645.41
2023-04-19T09:19:48.089Z,99642.13
2023-04-19T09:22:15.836Z,99642.78
2023-04-19T09:27:25.631Z,99644.81
2023-04-19T09:29:53.041Z,99642.09
2023-04-19T09:32:20.605Z,99649.78
2023-04-19T09:34:53.409Z,99638.72
2023-04-19T09:37:41.602Z,99648.16
2023-04-19T09:40:27.201Z,99639.03
2023-04-19T09:45:29.676Z,99650.47
2023-04-19T09:48:03.471Z,99645.28
2023-04-19T09:50:31.911Z,99654.22
2023-04-19T09:53:03.619Z,99646.00
2023-04-19T09:55:41.375Z,99648.78
2023-04-19T09:58:12.573Z,99639.63
2023-04-19T10:00:47.977Z,99652.03
2023-04-19T10:03:18.771Z,99638.28
2023-04-19T10:05:49.889Z,99645.22
2023-04-19T10:08:17.435Z,99645.66
2023-04-19T10:10:46.394Z,99643.31
2023-04-19T10:13:21.975Z,99649.31
2023-04-19T10:15:55.566Z,99646.56
2023-04-19T10:18:29.701Z,99649.56
2023-04-19T10:21:02.063Z,99644.25
2023-04-19T10:23:30.308Z,99651.91
2023-04-19T10:26:02.844Z,99647.22
2023-04-19T10:28:31.118Z,99648.09
2023-04-19T10:31:02.710Z,99641.56
2023-04-19T10:33:39.677Z,99644.03
2023-04-19T10:36:10.603Z,99637.81
2023-04-19T10:38:48.757Z,99636.34
2023-04-19T10:41:18.498Z,99632.63
2023-04-19T10:43:47.848Z,99633.97
2023-04-19T10:46:24.838Z,99626.59
2023-04-19T10:48:59.567Z,99625.59
2023-04-19T10:51:33.657Z,99622.19
2023-04-19T10:54:30.381Z,99617.25
2023-04-19T10:57:05.818Z,99616.00
2023-04-19T10:59:37.063Z,99616.13
2023-04-19T11:02:05.796Z,99607.69
2023-04-19T11:04:36.514Z,99609.09
2023-04-19T11:07:05.530Z,99608.78
2023-04-19T11:09:39.640Z,99597.31
2023-04-19T11:12:10.851Z,99608.34
2023-04-19T11:14:45.757Z,99603.72
2023-04-19T11:17:20.779Z,99598.22
2023-04-19T11:19:58.985Z,99601.59
2023-04-19T11:22:31.236Z,99587.13
2023-04-19T11:25:14.776Z,99590.88
2023-04-19T11:27:43.117Z,99588.31
2023-04-19T11:30:13.244Z,99590.59
2023-04-19T11:32:47.190Z,99594.31
2023-04-19T11:35:15.541Z,99584.78
2023-04-19T11:37:46.059Z,99580.28
2023-04-19T11:40:17.392Z,99580.19
2023-04-19T11:42:45.295Z,99579.31
2023-04-19T11:45:26.111Z,99585.00
2023-04-19T11:47:59.351Z,99589.72
2023-04-19T11:50:38.557Z,99589.97
2023-04-19T11:53:17.486Z,99583.25
2023-04-19T11:55:48.665Z,99585.16
2023-04-19T11:58:33.702Z,99591.28
2023-04-19T12:01:16.531Z,99585.06
2023-04-19T12:03:47.945Z,99580.97
2023-04-19T12:06:16.626Z,99579.22
2023-04-19T12:08:51.262Z,99577.81
2023-04-19T12:11:25.462Z,99583.53
2023-04-19T12:14:10.664Z,99582.19
2023-04-19T12:16:42.126Z,99586.47
2023-04-19T12:19:20.454Z,99590.50
2023-04-19T12:21:50.712Z,99580.88
2023-04-19T12:24:18.578Z,99576.31
2023-04-19T12:27:00.687Z,99587.53
2023-04-19T12:29:30.536Z,99577.47
2023-04-19T12:31:58.224Z,99572.22
2023-04-19T12:34:28.162Z,99565.50
2023-04-19T12:37:00.146Z,99561.75
2023-04-19T12:39:28.798Z,99560.59
2023-04-19T12:41:57.623Z,99558.78
2023-04-19T12:44:25.121Z,99561.88
2023-04-19T12:46:57.718Z,99558.69
2023-04-19T12:49:34.276Z,99562.63
2023-04-19T12:52:10.944Z,99561.13
2023-04-19T12:54:39.401Z,99561.22
2023-04-19T12:57:09.950Z,99558.25
2023-04-19T12:59:37.488Z,99561.81
2023-04-19T13:02:14.145Z,99554.13
2023-04-19T13:04:43.831Z,99554.94
2023-04-19T13:07:15.857Z,99564.78
2023-04-19T13:09:44.892Z,99566.81
2023-04-19T13:12:17.814Z,99560.78
2023-04-19T13:14:50.077Z,99561.38
2023-04-19T13:17:23.062Z,99558.38
2023-04-19T13:19:51.855Z,99564.03
2023-04-19T13:22:20.496Z,99559.22
2023-04-19T13:24:49.786Z,99556.13
2023-04-19T13:27:21.683Z,99554.31
2023-04-19T13:29:53.236Z,99552.72
2023-04-19T13:32:21.126Z,99554.31
2023-04-19T13:34:55.486Z,99554.97
2023-04-19T13:37:26.544Z,99558.06
2023-04-19T13:39:56.855Z,99557.22
2023-04-19T13:42:35.820Z,99566.34
2023-04-19T13:45:04.921Z,99570.63
2023-04-19T13:47:33.004Z,99567.31
2023-04-19T13:50:04.230Z,99572.44
2023-04-19T13:52:34.934Z,99566.16
2023-04-19T13:55:03.266Z,99564.78
2023-04-19T13:57:31.735Z,99577.78
2023-04-19T14:00:00.857Z,99560.72
2023-04-19T14:02:28.644Z,99577.16
2023-04-19T14:04:59.620Z,99573.19
2023-04-19T14:07:27.211Z,99565.81
2023-04-19T14:09:57.054Z,99557.66
2023-04-19T14:12:27.592Z,99562.03
2023-04-19T14:14:57.737Z,99558.66
2023-04-19T14:17:29.429Z,99551.19
2023-04-19T14:19:59.478Z,99554.34
2023-04-19T14:22:29.541Z,99552.94
2023-04-19T14:24:58.076Z,99546.56
2023-04-19T14:27:26.359Z,99547.75
2023-04-19T14:29:57.603Z,99549.72
2023-04-19T14:32:27.425Z,99552.91
2023-04-19T14:34:55.708Z,99549.41
2023-04-19T14:37:24.521Z,99548.69
2023-04-19T14:39:53.076Z,99555.88
2023-04-19T14:42:23.560Z,99553.75
2023-04-19T14:44:52.374Z,99542.75
2023-04-19T14:47:22.948Z,99551.16
2023-04-19T14:49:50.073Z,99553.72
2023-04-19T14:52:19.553Z,99554.88
2023-04-19T14:54:51.657Z,99553.97
2023-04-19T14:57:23.069Z,99553.38
2023-04-19T14:59:51.966Z,99544.22
2023-04-19T15:02:21.413Z,99546.38
2023-04-19T15:04:48.810Z,99552.16
2023-04-19T15:07:18.835Z,99553.84
2023-04-19T15:09:48.364Z,99556.00
2023-04-19T15:12:23.883Z,99550.13
2023-04-19T15:14:50.984Z,99553.97
2023-04-19T15:17:19.222Z,99550.66
2023-04-19T15:19:54.605Z,99555.78
2023-04-19T15:22:23.546Z,99553.88
2023-04-19T15:24:52.335Z,99550.78
2023-04-19T15:27:25.475Z,99542.00
2023-04-19T15:29:52.501Z,99539.03
2023-04-19T15:32:27.464Z,99538.06
2023-04-19T15:34:57.369Z,99545.31
2023-04-19T15:37:28.524Z,99545.97
2023-04-19T15:39:59.635Z,99548.53
2023-04-19T15:42:27.816Z,99555.88
2023-04-19T15:44:58.089Z,99549.50
2023-04-19T15:47:25.825Z,99549.38
2023-04-19T15:49:58.221Z,99552.59
2023-04-19T15:52:32.260Z,99558.94
2023-04-19T15:54:59.385Z,99556.84
2023-04-19T15:57:30.553Z,99562.03
2023-04-19T16:00:00.377Z,99557.25
2023-04-19T16:02:36.516Z,99555.31
2023-04-19T16:05:05.003Z,99550.59
2023-04-19T16:07:34.701Z,99562.84
2023-04-19T16:10:09.012Z,99560.38
2023-04-19T16:12:37.128Z,99561.00
2023-04-19T16:15:05.293Z,99561.84
2023-04-19T16:17:36.090Z,99559.91
2023-04-19T16:20:04.943Z,99556.69
2023-04-19T16:22:38.586Z,99546.88
2023-04-19T16:25:11.916Z,99561.34
2023-04-19T16:27:41.512Z,99558.44
2023-04-19T16:30:16.993Z,99556.19
2023-04-19T16:32:45.880Z,99558.22
2023-04-19T16:35:14.441Z,99561.06
2023-04-19T16:37:42.600Z,99559.75
2023-04-19T16:40:11.608Z,99560.34
2023-04-19T16:42:40.275Z,99562.72
2023-04-19T16:45:24.482Z,99555.25
2023-04-19T16:47:57.811Z,99556.56
2023-04-19T16:50:25.012Z,99558.06
2023-04-19T16:52:59.051Z,99563.13
2023-04-19T16:55:26.702Z,99568.47
2023-04-19T16:58:01.531Z,99572.06
2023-04-19T17:00:32.237Z,99568.81
2023-04-19T17:03:10.132Z,99577.66
2023-04-19T17:05:42.053Z,99572.13
2023-04-19T17:08:15.780Z,99574.88
2023-04-19T17:10:42.900Z,99572.94
2023-04-19T17:13:12.737Z,99574.72
2023-04-19T17:15:40.504Z,99572.19
2023-04-19T17:18:20.867Z,99586.84
2023-04-19T17:20:50.867Z,99573.59
2023-04-19T17:23:25.321Z,99580.91
2023-04-19T17:25:53.557Z,99579.94
2023-04-19T17:28:31.134Z,99589.06
2023-04-19T17:31:04.512Z,99577.50
2023-04-19T17:33:32.395Z,99582.53
2023-04-19T17:36:00.322Z,99585.63
2023-04-19T17:38:29.629Z,99581.38
2023-04-19T17:40:59.392Z,99593.75
2023-04-19T17:43:28.307Z,99598.31
2023-04-19T17:45:56.319Z,99606.38
2023-04-19T17:48:24.243Z,99608.19
2023-04-19T17:50:52.127Z,99613.00
2023-04-19T17:53:36.363Z,99617.31
2023-04-19T17:56:05.906Z,99612.34
2023-04-19T17:58:38.288Z,99612.84
2023-04-19T18:01:20.215Z,99617.16
2023-04-19T18:03:51.158Z,99623.50
2023-04-19T18:06:21.436Z,99630.31
2023-04-19T18:08:50.699Z,99632.31
2023-04-19T18:11:20.305Z,99636.56
2023-04-19T18:13:49.175Z,99633.63
2023-04-19T18:16:23.352Z,99635.38
2023-04-19T18:18:55.764Z,99643.44
2023-04-19T18:21:24.949Z,99649.75
2023-04-19T18:23:57.726Z,99639.75
2023-04-19T18:26:29.075Z,99643.28
2023-04-19T18:29:02.257Z,99648.59
2023-04-19T18:31:31.484Z,99655.88
2023-04-19T18:34:03.944Z,99651.38
2023-04-19T18:36:37.369Z,99657.66
2023-04-19T18:39:06.221Z,99661.44
2023-04-19T18:41:40.648Z,99659.97
2023-04-19T18:46:43.752Z,99667.75
2023-04-19T18:49:15.367Z,99668.78
2023-04-19T18:51:45.530Z,99670.34
2023-04-19T18:54:24.061Z,99667.81
2023-04-19T18:59:29.558Z,99663.47
2023-04-19T19:02:03.892Z,99667.28
2023-04-19T19:04:52.150Z,99678.06
2023-04-19T19:12:52.229Z,99671.81
2023-04-19T19:15:25.587Z,99676.84
2023-04-19T19:18:04.481Z,99685.91
2023-04-19T19:20:36.647Z,99690.44
2023-04-19T19:23:07.194Z,99685.66
2023-04-19T19:25:38.050Z,99699.50
2023-04-19T19:28:12.718Z,99691.97
2023-04-19T19:30:44.471Z,99690.25
2023-04-19T19:33:17.220Z,99701.81
2023-04-19T19:35:46.900Z,99700.56
2023-04-19T19:38:26.603Z,99709.09
2023-04-19T19:41:31.087Z,99703.34
2023-04-19T19:43:46.848Z,99704.63
2023-04-19T19:46:18.183Z,99703.38
2023-04-19T19:48:53.693Z,99700.38
2023-04-19T19:51:48.082Z,99701.63
2023-04-19T19:54:17.254Z,99702.13
2023-04-19T19:59:56.928Z,99700.16
2023-04-19T20:02:34.213Z,99700.41
2023-04-19T20:05:05.767Z,99692.13
2023-04-19T20:08:00.512Z,99698.91
2023-04-19T20:10:30.712Z,99696.94
2023-04-19T20:13:06.161Z,99694.91
2023-04-19T20:15:41.895Z,99693.66
2023-04-19T20:18:12.366Z,99696.44
2023-04-19T20:20:43.259Z,99693.44
2023-04-19T20:23:13.454Z,99695.44
2023-04-19T20:25:44.481Z,99693.69
2023-04-19T20:28:18.518Z,99692.69
2023-04-19T20:30:49.630Z,99693.44
2023-04-19T20:33:21.447Z,99693.41
2023-04-19T20:35:51.391Z,99703.44
2023-04-19T20:38:20.126Z,99700.13
2023-04-19T20:40:52.753Z,99711.63
2023-04-19T20:43:29.929Z,99710.88
2023-04-19T20:46:07.548Z,99720.16
2023-04-19T20:48:40.838Z,99709.88
2023-04-19T20:51:13.330Z,99710.88
2023-04-19T20:53:44.242Z,99709.84
2023-04-19T20:56:19.148Z,99705.09
2023-04-19T20:58:51.595Z,99710.09
2023-04-19T21:01:24.468Z,99720.16
2023-04-19T21:03:52.808Z,99716.38
2023-04-19T21:06:23.197Z,99718.38
2023-04-19T21:08:52.475Z,99722.16
2023-04-19T21:11:19.716Z,99715.38
2023-04-19T21:13:49.363Z,99720.41
2023-04-19T21:16:21.306Z,99719.41
2023-04-19T21:18:55.915Z,99719.41
2023-04-19T21:21:24.601Z,99718.91
2023-04-19T21:23:54.817Z,99718.88
2023-04-19T21:26:22.398Z,99712.84
2023-04-19T21:28:52.115Z,99711.88
2023-04-19T21:31:23.948Z,99715.13
2023-04-19T21:33:52.864Z,99720.34
2023-04-19T21:36:22.612Z,99716.09
2023-04-19T21:38:52.617Z,99710.84
2023-04-19T21:41:20.790Z,99704.09
2023-04-19T21:43:49.715Z,99711.88
2023-04-19T21:46:17.226Z,99712.59
2023-04-19T21:48:47.621Z,99714.13
2023-04-19T21:51:15.707Z,99713.88
2023-04-19T21:53:43.737Z,99728.63
2023-04-19T21:56:12.419Z,99720.91
2023-04-19T21:58:40.849Z,99721.69
2023-04-19T22:01:09.420Z,99722.16
2023-04-19T22:03:37.777Z,99722.44
2023-04-19T22:06:08.098Z,99726.22
2023-04-19T22:08:36.862Z,99729.72
2023-04-19T22:11:05.150Z,99727.47
2023-04-19T22:13:34.491Z,99713.72
2023-04-19T22:16:02.546Z,99714.72
2023-04-19T22:18:30.018Z,99720.22
2023-04-19T22:21:01.910Z,99719.22
2023-04-19T22:23:29.590Z,99728.00
2023-04-19T22:25:58.272Z,99718.50
2023-04-19T22:28:29.506Z,99716.00
2023-04-19T22:30:58.315Z,99724.25
2023-04-19T22:33:29.019Z,99733.00
2023-04-19T22:35:58.778Z,99740.78
2023-04-19T22:38:27.426Z,99722.50
2023-04-19T22:40:55.143Z,99734.53
2023-04-19T22:43:23.063Z,99722.22
2023-04-19T22:45:50.377Z,99732.78
2023-04-19T22:48:18.867Z,99733.00
2023-04-19T22:50:48.747Z,99733.50
2023-04-19T22:53:16.929Z,99733.75
2023-04-19T22:55:45.812Z,99730.72
2023-04-19T22:58:13.609Z,99734.00
2023-04-19T23:00:43.282Z,99741.00
2023-04-19T23:03:10.762Z,99735.00
2023-04-19T23:05:41.655Z,99742.50
2023-04-19T23:08:16.145Z,99743.50
2023-04-19T23:10:45.926Z,99743.00
2023-04-19T23:13:15.881Z,99735.50
2023-04-19T23:15:46.754Z,99736.75
2023-04-19T23:18:17.676Z,99733.75
2023-04-19T23:20:45.609Z,99737.72
2023-04-19T23:23:15.281Z,99732.72
2023-04-19T23:25:43.191Z,99733.72
2023-04-19T23:28:12.690Z,99722.94
2023-04-19T23:30:41.252Z,99716.41
2023-04-19T23:33:10.030Z,99712.94
2023-04-19T23:35:41.744Z,99710.16
2023-04-19T23:38:19.133Z,99717.66
2023-04-19T23:40:47.833Z,99716.66
2023-04-19T23:43:18.379Z,99711.38
2023-04-19T23:45:50.255Z,99713.16
2023-04-19T23:48:18.346Z,99714.38
2023-04-19T23:50:46.739Z,99716.66
2023-04-19T23:53:18.078Z,99711.38
2023-04-19T23:55:45.038Z,99706.59
2023-04-19T23:58:12.965Z,99699.84
